SAVT/REL METAR and TAF weather

Enter ICAO airport designator
Station Type Date Time Source
SAVT METAR 2019/06/18 22:30 UTC NOAA

SAVT 182230Z 23008KT 7000 BKN010 SCT040 10/10 Q1009 REDZ


Station Type Date Time Source
SAVT Decoded METAR 2019/06/18 22:30 UTC NOAA

Trelew Aerodrome, Argentina (SAVT) 43-12S 065-16W 43M
Jun 18, 2019 - 06:30 PM EDT / 2019.06.18 2230 UTC
Wind: from the SW (230 degrees) at 9 MPH (8 KT):0
Visibility: 4 mile(s):0
Sky conditions: mostly cloudy
Temperature: 50 F (10 C)
Dew Point: 50 F (10 C)
Relative Humidity: 100%
Pressure (altimeter): 29.80 in. Hg (1009 hPa)
ob: SAVT 182230Z 23008KT 7000 BKN010 SCT040 10/10 Q1009 REDZ
cycle: 22

Station Type Date Time Source
SAVT TAF 2019/04/29 08:53 UTC NOAA

TAF
AMD SAVT 290800Z 2908/3006 27025G40KT 9999 SCT020 BKN035 TX16/2919Z TN07/3006Z
TEMPO 2911/2914 7000 -SHRA OVC020 SCT030
BECMG 3002/3004 25015KT

Example: see airport list